createdAt,value
2019-03-31T00:00:12.144Z,21.20
2019-03-31T00:02:42.914Z,21.20
2019-03-31T00:05:13.459Z,21.20
2019-03-31T00:07:44.145Z,21.20
2019-03-31T00:10:14.926Z,21.20
2019-03-31T00:12:45.517Z,21.10
2019-03-31T00:15:16.215Z,21.10
2019-03-31T00:17:46.850Z,21.10
2019-03-31T00:20:17.465Z,21.10
2019-03-31T00:22:48.095Z,21.10
2019-03-31T00:25:18.663Z,21.10
2019-03-31T00:27:49.095Z,21.10
2019-03-31T00:30:19.731Z,21.10
2019-03-31T00:32:50.362Z,21.10
2019-03-31T00:35:20.823Z,21.10
2019-03-31T00:37:51.334Z,21.20
2019-03-31T00:40:21.990Z,21.20
2019-03-31T00:42:52.490Z,21.20
2019-03-31T00:45:23.024Z,21.20
2019-03-31T00:47:53.577Z,21.20
2019-03-31T00:50:24.034Z,21.20
2019-03-31T00:52:54.741Z,21.20
2019-03-31T00:55:25.435Z,21.20
2019-03-31T00:57:56.097Z,21.20
2019-03-31T01:00:44.937Z,21.20
2019-03-31T01:03:15.882Z,21.20
2019-03-31T01:05:46.634Z,21.10
2019-03-31T01:08:18.035Z,21.10
2019-03-31T01:10:48.679Z,21.10
2019-03-31T01:13:19.218Z,21.10
2019-03-31T01:15:49.955Z,21.10
2019-03-31T01:18:20.590Z,21.10
2019-03-31T01:20:51.160Z,21.10
2019-03-31T01:23:21.783Z,21.10
2019-03-31T01:25:52.453Z,21.10
2019-03-31T01:28:23.119Z,21.10
2019-03-31T01:30:53.757Z,21.10
2019-03-31T01:33:24.620Z,21.10
2019-03-31T01:35:55.120Z,21.10
2019-03-31T01:38:25.824Z,21.10
2019-03-31T01:40:56.866Z,21.10
2019-03-31T01:43:27.359Z,21.10
2019-03-31T01:45:58.246Z,21.10
2019-03-31T01:48:28.745Z,21.10
2019-03-31T01:50:59.455Z,21.10
2019-03-31T01:53:30.155Z,21.10
2019-03-31T01:56:00.736Z,21.10
2019-03-31T01:58:31.431Z,21.00
2019-03-31T02:01:03.815Z,21.00
2019-03-31T02:03:34.468Z,21.00
2019-03-31T02:06:05.212Z,21.00
2019-03-31T02:08:35.633Z,20.90
2019-03-31T02:11:06.444Z,20.90
2019-03-31T02:13:37.135Z,20.90
2019-03-31T02:16:07.742Z,20.90
2019-03-31T02:18:38.218Z,20.90
2019-03-31T02:21:08.910Z,20.90
2019-03-31T02:23:39.435Z,20.90
2019-03-31T02:26:09.982Z,20.90
2019-03-31T02:28:40.678Z,20.90
2019-03-31T02:31:11.232Z,20.90
2019-03-31T02:33:41.813Z,20.90
2019-03-31T02:36:12.471Z,20.90
2019-03-31T02:38:42.949Z,20.90
2019-03-31T02:41:13.371Z,20.90
2019-03-31T02:43:44.001Z,20.90
2019-03-31T02:46:14.766Z,20.90
2019-03-31T02:48:45.427Z,20.90
2019-03-31T02:51:16.127Z,20.90
2019-03-31T02:53:46.763Z,20.90
2019-03-31T02:56:18.630Z,20.90
2019-03-31T02:58:51.015Z,20.80
2019-03-31T03:01:22.957Z,20.90
2019-03-31T03:03:53.671Z,20.80
2019-03-31T03:06:26.844Z,20.80
2019-03-31T03:08:59.223Z,20.80
2019-03-31T03:11:31.819Z,20.80
2019-03-31T03:14:03.854Z,20.80
2019-03-31T03:16:34.574Z,20.80
2019-03-31T03:19:05.279Z,20.80
2019-03-31T03:21:35.778Z,20.80
2019-03-31T03:24:06.609Z,20.80
2019-03-31T03:26:37.204Z,20.80
2019-03-31T03:29:07.679Z,20.80
2019-03-31T03:31:38.331Z,20.80
2019-03-31T03:34:08.881Z,20.80
2019-03-31T03:36:42.950Z,20.80
2019-03-31T03:39:11.601Z,20.80
2019-03-31T03:41:42.238Z,20.80
2019-03-31T03:44:12.908Z,20.80
2019-03-31T03:46:43.470Z,20.80
2019-03-31T03:49:14.297Z,20.80
2019-03-31T03:51:44.975Z,20.80
2019-03-31T03:54:15.568Z,20.80
2019-03-31T03:56:46.198Z,20.80
2019-03-31T03:59:16.671Z,20.80
2019-03-31T04:01:47.330Z,20.80
2019-03-31T04:04:17.861Z,20.80
2019-03-31T04:06:48.509Z,20.80
2019-03-31T04:09:19.003Z,20.80
2019-03-31T04:11:49.576Z,20.70
2019-03-31T04:14:20.013Z,20.70
2019-03-31T04:16:50.513Z,20.70
2019-03-31T04:19:21.206Z,20.70
2019-03-31T04:21:51.675Z,20.70
2019-03-31T04:24:22.115Z,20.70
2019-03-31T04:26:52.634Z,20.70
2019-03-31T04:29:23.109Z,20.60
2019-03-31T04:31:53.638Z,20.60
2019-03-31T04:34:24.096Z,20.60
2019-03-31T04:36:54.663Z,20.60
2019-03-31T04:39:25.236Z,20.60
2019-03-31T04:41:55.729Z,20.60
2019-03-31T04:44:26.346Z,20.60
2019-03-31T04:46:56.874Z,20.60
2019-03-31T04:49:27.486Z,20.60
2019-03-31T04:51:58.191Z,20.60
2019-03-31T04:54:28.842Z,20.60
2019-03-31T04:56:59.266Z,20.60
2019-03-31T04:59:29.713Z,20.60
2019-03-31T05:02:00.353Z,20.60
2019-03-31T05:04:30.934Z,20.60
2019-03-31T05:07:01.621Z,20.60
2019-03-31T05:09:32.271Z,20.60
2019-03-31T05:12:02.842Z,20.60
2019-03-31T05:14:33.390Z,20.60
2019-03-31T05:17:03.878Z,20.60
2019-03-31T05:19:34.453Z,20.60
2019-03-31T05:22:05.210Z,20.60
2019-03-31T05:24:35.822Z,20.60
2019-03-31T05:27:06.481Z,20.60
2019-03-31T05:29:37.207Z,20.60
2019-03-31T05:32:07.641Z,20.60
2019-03-31T05:34:38.269Z,20.60
2019-03-31T05:37:08.713Z,20.60
2019-03-31T05:39:39.278Z,20.60
2019-03-31T05:42:09.935Z,20.60
2019-03-31T05:44:40.534Z,20.60
2019-03-31T05:47:11.042Z,20.60
2019-03-31T05:49:41.600Z,20.60
2019-03-31T05:52:12.272Z,20.60
2019-03-31T05:54:43.003Z,20.60
2019-03-31T05:57:13.448Z,20.60
2019-03-31T05:59:44.015Z,20.60
2019-03-31T06:02:14.550Z,20.50
2019-03-31T06:04:45.223Z,20.50
2019-03-31T06:07:15.748Z,20.50
2019-03-31T06:09:46.365Z,20.50
2019-03-31T06:12:16.855Z,20.50
2019-03-31T06:14:47.570Z,20.50
2019-03-31T06:17:18.065Z,20.50
2019-03-31T06:19:48.564Z,20.50
2019-03-31T06:22:19.103Z,20.50
2019-03-31T06:24:49.613Z,20.40
2019-03-31T06:27:20.084Z,20.40
2019-03-31T06:29:50.497Z,20.40
2019-03-31T06:32:21.275Z,20.40
2019-03-31T06:34:51.750Z,20.40
2019-03-31T06:37:22.287Z,20.40
2019-03-31T06:39:52.959Z,20.40
2019-03-31T06:42:23.414Z,20.40
2019-03-31T06:44:53.883Z,20.40
2019-03-31T06:47:24.510Z,20.40
2019-03-31T06:49:54.987Z,20.40
2019-03-31T06:52:25.616Z,20.40
2019-03-31T06:54:56.274Z,20.40
2019-03-31T06:57:26.917Z,20.30
2019-03-31T06:59:57.360Z,20.40
2019-03-31T07:02:27.908Z,20.40
2019-03-31T07:05:01.163Z,20.40
2019-03-31T07:07:30.566Z,20.40
2019-03-31T07:10:01.151Z,20.40
2019-03-31T07:12:31.640Z,20.40
2019-03-31T07:15:02.216Z,20.40
2019-03-31T07:17:32.806Z,20.40
2019-03-31T07:20:03.340Z,20.40
2019-03-31T07:22:33.913Z,20.40
2019-03-31T07:25:04.530Z,20.40
2019-03-31T07:27:35.085Z,20.40
2019-03-31T07:30:07.249Z,20.40
2019-03-31T07:32:37.933Z,20.40
2019-03-31T07:35:18.273Z,20.40
2019-03-31T07:37:47.623Z,20.40
2019-03-31T07:40:16.289Z,20.30
2019-03-31T07:42:47.060Z,20.30
2019-03-31T07:45:18.157Z,20.30
2019-03-31T07:47:48.914Z,20.30
2019-03-31T07:50:20.250Z,20.30
2019-03-31T07:52:50.967Z,20.30
2019-03-31T07:55:22.570Z,20.30
2019-03-31T07:57:54.683Z,20.30
2019-03-31T08:00:25.673Z,20.30
2019-03-31T08:02:56.254Z,20.30
2019-03-31T08:05:32.834Z,20.30
2019-03-31T08:07:58.914Z,20.30
2019-03-31T08:10:29.626Z,20.30
2019-03-31T08:13:00.277Z,20.40
2019-03-31T08:15:30.814Z,20.30
2019-03-31T08:18:01.266Z,20.40
2019-03-31T08:20:31.862Z,20.40
2019-03-31T08:23:02.433Z,20.40
2019-03-31T08:25:32.971Z,20.40
2019-03-31T08:28:03.502Z,20.40
2019-03-31T08:30:34.270Z,20.30
2019-03-31T08:33:04.846Z,20.30
2019-03-31T08:35:46.773Z,20.30
2019-03-31T08:38:07.762Z,20.30
2019-03-31T08:40:38.393Z,20.30
2019-03-31T08:43:09.006Z,20.30
2019-03-31T08:45:39.686Z,20.30
2019-03-31T08:48:10.152Z,20.30
2019-03-31T08:50:40.645Z,20.30
2019-03-31T08:53:11.151Z,20.30
2019-03-31T08:55:41.616Z,20.30
2019-03-31T08:58:12.074Z,20.30
2019-03-31T09:00:55.455Z,20.30
2019-03-31T09:03:25.949Z,20.30
2019-03-31T09:06:02.214Z,20.30
2019-03-31T09:08:28.916Z,20.30
2019-03-31T09:10:59.499Z,20.30
2019-03-31T09:13:30.110Z,20.30
2019-03-31T09:16:00.653Z,20.30
2019-03-31T09:18:31.078Z,20.30
2019-03-31T09:21:01.665Z,20.30
2019-03-31T09:23:32.216Z,20.30
2019-03-31T09:26:02.797Z,20.30
2019-03-31T09:28:33.289Z,20.30
2019-03-31T09:31:03.978Z,20.30
2019-03-31T09:33:34.624Z,20.20
2019-03-31T09:36:15.978Z,20.30
2019-03-31T09:38:37.380Z,20.30
2019-03-31T09:41:08.204Z,20.30
2019-03-31T09:43:38.770Z,20.30
2019-03-31T09:46:09.379Z,20.30
2019-03-31T09:48:39.938Z,20.30
2019-03-31T09:51:10.393Z,20.30
2019-03-31T09:53:40.910Z,20.30
2019-03-31T09:56:13.704Z,20.30
2019-03-31T09:58:43.913Z,20.30
2019-03-31T10:01:14.527Z,20.30
2019-03-31T10:03:45.077Z,20.30
2019-03-31T10:06:29.326Z,20.30
2019-03-31T10:08:48.056Z,20.30
2019-03-31T10:11:18.731Z,20.30
2019-03-31T10:13:49.276Z,20.30
2019-03-31T10:16:19.790Z,20.30
2019-03-31T10:18:50.367Z,20.30
2019-03-31T10:21:20.935Z,20.30
2019-03-31T10:23:51.641Z,20.30
2019-03-31T10:26:31.879Z,20.30
2019-03-31T10:28:54.301Z,20.30
2019-03-31T10:31:24.893Z,20.30
2019-03-31T10:33:55.415Z,20.30
2019-03-31T10:36:25.909Z,20.30
2019-03-31T10:38:56.726Z,20.30
2019-03-31T10:41:30.697Z,20.30
2019-03-31T10:43:59.419Z,20.30
2019-03-31T10:46:29.911Z,20.30
2019-03-31T10:49:00.367Z,20.30
2019-03-31T10:51:31.060Z,20.30
2019-03-31T10:54:04.415Z,20.30
2019-03-31T10:56:33.813Z,20.30
2019-03-31T10:59:04.422Z,20.30
2019-03-31T11:01:34.995Z,20.30
2019-03-31T11:04:05.621Z,20.30
2019-03-31T11:06:36.174Z,20.30
2019-03-31T11:09:08.591Z,20.30
2019-03-31T11:11:39.097Z,20.30
2019-03-31T11:14:09.734Z,20.30
2019-03-31T11:16:40.385Z,20.30
2019-03-31T11:19:10.950Z,20.30
2019-03-31T11:21:51.827Z,20.30
2019-03-31T11:24:22.350Z,20.30
2019-03-31T11:26:53.142Z,20.30
2019-03-31T11:29:23.752Z,20.30
2019-03-31T11:31:54.322Z,20.30
2019-03-31T11:34:24.835Z,20.30
2019-03-31T11:36:55.427Z,20.30
2019-03-31T11:39:25.871Z,20.30
2019-03-31T11:41:56.446Z,20.30
2019-03-31T11:44:27.793Z,20.30
2019-03-31T11:47:00.673Z,20.40
2019-03-31T11:49:31.193Z,20.40
2019-03-31T11:52:01.646Z,20.40
2019-03-31T11:54:32.197Z,20.40
2019-03-31T11:57:02.648Z,20.40
2019-03-31T11:59:33.282Z,20.40
2019-03-31T12:02:03.865Z,20.40
2019-03-31T12:04:34.406Z,20.40
2019-03-31T12:07:04.966Z,20.40
2019-03-31T12:09:35.443Z,20.40
2019-03-31T12:12:06.062Z,20.30
2019-03-31T12:14:36.530Z,20.30
2019-03-31T12:17:06.962Z,20.30
2019-03-31T12:19:38.737Z,20.40
2019-03-31T12:22:09.484Z,20.40
2019-03-31T12:24:40.101Z,20.40
2019-03-31T12:27:10.746Z,20.40
2019-03-31T12:29:41.378Z,20.30
2019-03-31T12:32:11.842Z,20.30
2019-03-31T12:34:42.486Z,20.40
2019-03-31T12:37:13.047Z,20.30
2019-03-31T12:39:43.602Z,20.40
2019-03-31T12:42:15.226Z,20.40
2019-03-31T12:44:45.726Z,20.40
2019-03-31T12:47:16.304Z,20.40
2019-03-31T12:49:46.856Z,20.40
2019-03-31T12:52:17.354Z,20.40
2019-03-31T12:54:47.889Z,20.40
2019-03-31T12:57:18.434Z,20.40
2019-03-31T12:59:49.006Z,20.40
2019-03-31T13:02:19.789Z,20.40
2019-03-31T13:04:50.246Z,20.40
2019-03-31T13:07:20.696Z,20.40
2019-03-31T13:09:51.167Z,20.40
2019-03-31T13:12:21.822Z,20.40
2019-03-31T13:14:52.409Z,20.40
2019-03-31T13:17:23.015Z,20.40
2019-03-31T13:19:53.701Z,20.40
2019-03-31T13:22:24.294Z,20.40
2019-03-31T13:24:54.819Z,20.40
2019-03-31T13:27:25.481Z,20.40
2019-03-31T13:29:56.049Z,20.50
2019-03-31T13:32:26.671Z,20.50
2019-03-31T13:34:57.278Z,20.50
2019-03-31T13:37:27.742Z,20.50
2019-03-31T13:39:58.295Z,20.50
2019-03-31T13:42:28.955Z,20.50
2019-03-31T13:44:59.517Z,20.50
2019-03-31T13:47:30.154Z,20.50
2019-03-31T13:50:00.619Z,20.50
2019-03-31T13:52:31.053Z,20.50
2019-03-31T13:55:01.716Z,20.50
2019-03-31T13:57:32.987Z,20.50
2019-03-31T14:00:04.329Z,20.50
2019-03-31T14:02:35.029Z,20.50
2019-03-31T14:05:06.014Z,20.50
2019-03-31T14:07:36.489Z,20.50
2019-03-31T14:10:07.519Z,20.50
2019-03-31T14:12:38.695Z,20.50
2019-03-31T14:15:18.993Z,20.50
2019-03-31T14:17:41.981Z,20.50
2019-03-31T14:20:12.637Z,20.50
2019-03-31T14:22:43.116Z,20.50
2019-03-31T14:25:14.353Z,20.50
2019-03-31T14:27:44.911Z,20.50
2019-03-31T14:30:15.637Z,20.50
2019-03-31T14:32:46.116Z,20.50
2019-03-31T14:35:16.603Z,20.50
2019-03-31T14:37:47.282Z,20.50
2019-03-31T14:40:17.850Z,20.60
2019-03-31T14:42:48.466Z,20.60
2019-03-31T14:45:32.293Z,20.60
2019-03-31T14:48:03.312Z,20.60
2019-03-31T14:50:35.632Z,20.60
2019-03-31T14:53:06.965Z,20.60
2019-03-31T14:55:37.673Z,20.60
2019-03-31T14:58:08.672Z,20.60
2019-03-31T15:00:39.469Z,20.70
2019-03-31T15:03:10.033Z,20.70
2019-03-31T15:05:40.561Z,20.70
2019-03-31T15:08:10.998Z,20.70
2019-03-31T15:10:41.476Z,20.70
2019-03-31T15:13:12.236Z,20.70
2019-03-31T15:15:42.831Z,20.70
2019-03-31T15:18:13.390Z,20.70
2019-03-31T15:20:43.885Z,20.70
2019-03-31T15:23:14.379Z,20.80
2019-03-31T15:25:44.843Z,20.80
2019-03-31T15:28:15.476Z,20.80
2019-03-31T15:30:46.029Z,20.80
2019-03-31T15:33:16.493Z,20.80
2019-03-31T15:35:47.086Z,20.80
2019-03-31T15:38:17.569Z,20.80
2019-03-31T15:40:48.628Z,20.90
2019-03-31T15:43:19.308Z,20.90
2019-03-31T15:45:49.840Z,20.80
2019-03-31T15:48:20.394Z,20.90
2019-03-31T15:50:50.922Z,20.90
2019-03-31T15:53:21.467Z,20.90
2019-03-31T15:55:51.932Z,20.90
2019-03-31T15:58:22.523Z,20.90
2019-03-31T16:00:52.979Z,20.90
2019-03-31T16:03:23.462Z,21.00
2019-03-31T16:05:54.144Z,21.00
2019-03-31T16:08:24.075Z,21.00
2019-03-31T16:10:54.120Z,21.00
2019-03-31T16:13:24.180Z,21.00
2019-03-31T16:15:54.146Z,21.00
2019-03-31T16:18:24.195Z,21.00
2019-03-31T16:20:54.172Z,21.00
2019-03-31T16:23:24.435Z,21.10
2019-03-31T16:25:57.255Z,21.10
2019-03-31T16:28:27.277Z,21.10
2019-03-31T16:30:57.182Z,21.10
2019-03-31T16:33:27.230Z,21.10
2019-03-31T16:35:57.189Z,21.10
2019-03-31T16:38:28.218Z,21.10
2019-03-31T16:40:58.113Z,21.10
2019-03-31T16:43:28.209Z,21.10
2019-03-31T16:45:58.265Z,21.10
2019-03-31T16:48:28.284Z,21.10
2019-03-31T16:50:58.365Z,21.20
2019-03-31T16:53:28.402Z,21.20
2019-03-31T16:55:58.555Z,21.20
2019-03-31T16:58:28.487Z,21.20
2019-03-31T17:00:58.560Z,21.00
2019-03-31T17:03:28.474Z,21.20
2019-03-31T17:05:58.814Z,21.20
2019-03-31T17:08:29.455Z,21.20
2019-03-31T17:10:59.352Z,21.20
2019-03-31T17:13:29.443Z,21.20
2019-03-31T17:15:59.455Z,21.20
2019-03-31T17:18:29.767Z,21.30
2019-03-31T17:20:59.956Z,21.30
2019-03-31T17:23:29.893Z,21.30
2019-03-31T17:25:59.992Z,21.30
2019-03-31T17:28:30.251Z,21.30
2019-03-31T17:31:00.564Z,21.30
2019-03-31T17:33:30.638Z,21.30
2019-03-31T17:36:00.852Z,21.30
2019-03-31T17:38:30.951Z,21.30
2019-03-31T17:41:01.112Z,21.30
2019-03-31T17:43:31.148Z,21.30
2019-03-31T17:46:01.026Z,21.40
2019-03-31T17:48:30.963Z,21.40
2019-03-31T17:51:00.918Z,21.40
2019-03-31T17:53:30.916Z,21.40
2019-03-31T17:56:01.080Z,21.40
2019-03-31T17:58:31.188Z,21.40
2019-03-31T18:01:01.265Z,21.40
2019-03-31T18:03:31.211Z,21.40
2019-03-31T18:06:01.250Z,21.40
2019-03-31T18:08:31.248Z,21.40
2019-03-31T18:11:01.222Z,21.40
2019-03-31T18:13:31.274Z,21.40
2019-03-31T18:16:01.335Z,21.40
2019-03-31T18:18:31.326Z,21.40
2019-03-31T18:21:01.250Z,21.40
2019-03-31T18:23:31.377Z,21.40
2019-03-31T18:26:01.425Z,21.40
2019-03-31T18:28:31.432Z,21.40
2019-03-31T18:31:01.516Z,21.40
2019-03-31T18:33:31.464Z,21.40
2019-03-31T18:36:01.403Z,21.40
2019-03-31T18:38:31.348Z,21.50
2019-03-31T18:41:03.737Z,21.50
2019-03-31T18:43:33.075Z,21.50
2019-03-31T18:46:03.166Z,21.50
2019-03-31T18:48:33.222Z,21.50
2019-03-31T18:51:03.238Z,21.50
2019-03-31T18:53:55.007Z,21.50
2019-03-31T18:56:46.696Z,21.50
2019-03-31T18:59:33.190Z,21.50
2019-03-31T19:02:25.352Z,21.40
2019-03-31T19:05:14.997Z,21.40
2019-03-31T19:08:02.778Z,21.40
2019-03-31T19:10:57.871Z,21.40
2019-03-31T19:13:55.339Z,21.40
2019-03-31T19:16:36.610Z,21.40
2019-03-31T19:19:28.583Z,21.40
2019-03-31T19:22:17.556Z,21.40
2019-03-31T19:25:01.998Z,21.40
2019-03-31T19:28:03.165Z,21.40
2019-03-31T19:30:50.978Z,21.40
2019-03-31T19:33:39.110Z,21.40
2019-03-31T19:36:27.074Z,21.40
2019-03-31T19:39:16.110Z,21.40
2019-03-31T19:42:10.321Z,21.40
2019-03-31T19:45:03.297Z,21.40
2019-03-31T19:47:56.126Z,21.40
2019-03-31T19:50:55.601Z,21.40
2019-03-31T19:53:57.925Z,21.40
2019-03-31T19:56:57.489Z,21.40
2019-03-31T19:59:56.405Z,21.40
2019-03-31T20:02:52.034Z,21.40
2019-03-31T20:05:53.935Z,21.40
2019-03-31T20:08:40.420Z,21.40
2019-03-31T20:11:15.718Z,21.40
2019-03-31T20:14:23.928Z,21.40
2019-03-31T20:17:16.490Z,21.50
2019-03-31T20:20:04.101Z,21.50
2019-03-31T20:23:08.268Z,21.40
2019-03-31T20:25:56.032Z,21.50
2019-03-31T20:28:43.597Z,21.40
2019-03-31T20:31:44.509Z,21.40
2019-03-31T20:34:33.068Z,21.40
2019-03-31T20:37:21.239Z,21.50
2019-03-31T20:40:23.234Z,21.50
2019-03-31T20:43:21.148Z,21.50
2019-03-31T20:45:51.190Z,21.50
2019-03-31T20:48:21.121Z,21.40
2019-03-31T20:50:51.241Z,21.50
2019-03-31T20:53:21.645Z,21.50
2019-03-31T20:55:51.773Z,21.60
2019-03-31T20:58:21.740Z,21.60
2019-03-31T21:00:51.831Z,21.60
2019-03-31T21:03:21.824Z,21.60
2019-03-31T21:05:51.816Z,21.70
2019-03-31T21:08:21.954Z,21.70
2019-03-31T21:10:51.958Z,21.70
2019-03-31T21:13:21.985Z,21.70
2019-03-31T21:15:52.057Z,21.70
2019-03-31T21:18:21.962Z,21.70
2019-03-31T21:20:52.030Z,21.70
2019-03-31T21:23:22.060Z,21.70
2019-03-31T21:25:52.162Z,21.70
2019-03-31T21:28:22.153Z,21.70
2019-03-31T21:30:52.169Z,21.70
2019-03-31T21:33:22.125Z,21.70
2019-03-31T21:35:52.044Z,21.70
2019-03-31T21:38:22.136Z,21.70
2019-03-31T21:40:52.165Z,21.70
2019-03-31T21:43:22.086Z,21.70
2019-03-31T21:45:52.180Z,21.70
2019-03-31T21:48:22.047Z,21.70
2019-03-31T21:50:52.122Z,21.70
2019-03-31T21:53:22.169Z,21.70
2019-03-31T21:55:52.234Z,21.70
2019-03-31T21:58:22.148Z,21.70
2019-03-31T22:00:54.183Z,21.70
2019-03-31T22:03:24.301Z,21.70
2019-03-31T22:05:54.290Z,21.70
2019-03-31T22:08:24.381Z,21.70
2019-03-31T22:10:54.341Z,21.70
2019-03-31T22:13:24.262Z,21.70
2019-03-31T22:15:54.328Z,21.70
2019-03-31T22:18:24.737Z,21.70
2019-03-31T22:20:54.774Z,21.70
2019-03-31T22:23:24.749Z,21.70
2019-03-31T22:25:55.009Z,21.70
2019-03-31T22:28:25.063Z,21.80
2019-03-31T22:30:55.021Z,21.70
2019-03-31T22:33:25.086Z,21.70
2019-03-31T22:36:12.726Z,21.70
2019-03-31T22:38:42.858Z,21.70
2019-03-31T22:41:12.974Z,21.70
2019-03-31T22:43:42.961Z,21.70
2019-03-31T22:46:13.200Z,21.70
2019-03-31T22:48:43.089Z,21.70
2019-03-31T22:51:13.230Z,21.70
2019-03-31T22:53:43.409Z,21.70
2019-03-31T22:56:13.427Z,21.70
2019-03-31T22:58:43.478Z,21.70
2019-03-31T23:01:13.708Z,21.70
2019-03-31T23:03:43.610Z,21.70
2019-03-31T23:06:13.694Z,21.70
2019-03-31T23:08:43.623Z,21.70
2019-03-31T23:11:13.625Z,21.70
2019-03-31T23:13:43.679Z,21.70
2019-03-31T23:16:13.707Z,21.70
2019-03-31T23:18:43.867Z,21.70
2019-03-31T23:21:13.946Z,21.70
2019-03-31T23:23:43.845Z,21.70
2019-03-31T23:26:14.095Z,21.70
2019-03-31T23:28:47.379Z,21.70
2019-03-31T23:31:17.878Z,21.70
2019-03-31T23:33:47.944Z,21.70
2019-03-31T23:36:18.075Z,21.70
2019-03-31T23:38:48.264Z,21.70
2019-03-31T23:41:18.289Z,21.70
2019-03-31T23:43:48.231Z,21.70
2019-03-31T23:46:18.274Z,21.70
2019-03-31T23:48:48.292Z,21.70
2019-03-31T23:51:18.218Z,21.70
2019-03-31T23:53:48.379Z,21.70
2019-03-31T23:56:18.306Z,21.70
2019-03-31T23:58:48.205Z,21.70
